createdAt,value
2023-01-21T00:00:10.686Z,0.43
2023-01-21T00:03:10.753Z,0.41
2023-01-21T00:06:10.702Z,0.27
2023-01-21T00:09:12.662Z,0.44
2023-01-21T00:12:12.703Z,0.43
2023-01-21T00:15:12.696Z,0.46
2023-01-21T00:18:12.675Z,0.52
2023-01-21T00:21:12.677Z,0.50
2023-01-21T00:24:12.711Z,0.52
2023-01-21T00:27:12.728Z,0.52
2023-01-21T00:30:12.731Z,0.34
2023-01-21T00:33:12.677Z,0.46
2023-01-21T00:36:19.688Z,0.46
2023-01-21T00:39:20.695Z,0.37
2023-01-21T00:42:20.724Z,0.35
2023-01-21T00:45:21.695Z,0.34
2023-01-21T00:48:21.696Z,0.33
2023-01-21T00:51:21.698Z,0.35
2023-01-21T00:54:21.710Z,0.35
2023-01-21T00:57:21.704Z,0.37
2023-01-21T01:00:36.661Z,0.27
2023-01-21T01:03:36.715Z,0.41
2023-01-21T01:06:37.717Z,0.38
2023-01-21T01:09:37.708Z,0.30
2023-01-21T01:12:37.734Z,0.33
2023-01-21T01:15:37.714Z,0.39
2023-01-21T01:18:38.723Z,0.45
2023-01-21T01:21:38.710Z,0.44
2023-01-21T01:24:38.741Z,0.41
2023-01-21T01:27:38.711Z,0.41
2023-01-21T01:30:38.746Z,0.42
2023-01-21T01:33:39.712Z,0.44
2023-01-21T01:36:39.674Z,0.44
2023-01-21T01:39:39.706Z,0.49
2023-01-21T01:42:39.702Z,0.51
2023-01-21T01:45:39.681Z,0.51
2023-01-21T01:48:41.689Z,0.52
2023-01-21T01:52:02.687Z,0.55
2023-01-21T01:55:05.678Z,0.57
2023-01-21T01:58:06.975Z,0.60
2023-01-21T02:01:06.714Z,0.58
2023-01-21T02:04:08.712Z,0.63
2023-01-21T02:07:08.655Z,0.60
2023-01-21T02:10:09.721Z,0.57
2023-01-21T02:13:09.714Z,0.61
2023-01-21T02:16:36.709Z,0.65
2023-01-21T02:20:07.694Z,0.69
2023-01-21T02:23:12.687Z,0.67
2023-01-21T02:26:30.699Z,0.70
2023-01-21T02:29:52.680Z,0.55
2023-01-21T02:33:31.031Z,0.70
2023-01-21T02:36:44.681Z,0.72
2023-01-21T02:40:02.679Z,0.61
2023-01-21T02:43:12.689Z,0.76
2023-01-21T02:46:26.679Z,0.69
2023-01-21T02:49:36.723Z,0.62
2023-01-21T02:52:37.715Z,0.81
2023-01-21T02:55:43.498Z,0.84
2023-01-21T02:58:40.673Z,0.90
2023-01-21T03:01:42.732Z,0.89
2023-01-21T03:05:05.662Z,0.75
2023-01-21T03:08:16.726Z,0.92
2023-01-21T03:11:28.675Z,0.72
2023-01-21T03:15:04.718Z,0.86
2023-01-21T03:18:12.692Z,0.96
2023-01-21T03:21:19.684Z,0.89
2023-01-21T03:24:20.668Z,0.95
2023-01-21T03:27:20.681Z,0.85
2023-01-21T03:30:29.706Z,0.88
2023-01-21T03:33:29.659Z,0.69
2023-01-21T03:36:47.716Z,0.86
2023-01-21T03:40:05.692Z,0.90
2023-01-21T03:43:05.698Z,0.89
2023-01-21T03:46:32.967Z,0.92
2023-01-21T03:49:50.658Z,0.93
2023-01-21T03:52:53.670Z,0.87
2023-01-21T03:55:53.657Z,0.90
2023-01-21T03:58:53.708Z,0.96
2023-01-21T04:01:53.780Z,0.95
2023-01-21T04:04:53.707Z,0.96
2023-01-21T04:07:53.674Z,0.94
2023-01-21T04:10:53.691Z,0.78
2023-01-21T04:13:53.664Z,0.81
2023-01-21T04:16:53.653Z,0.92
2023-01-21T04:19:53.687Z,0.83
2023-01-21T04:22:53.670Z,0.92
2023-01-21T04:25:53.668Z,0.94
2023-01-21T04:28:53.698Z,0.83
2023-01-21T04:31:53.668Z,0.94
2023-01-21T04:34:53.690Z,0.96
2023-01-21T04:37:53.680Z,0.96
2023-01-21T04:40:53.709Z,0.94
2023-01-21T04:43:53.723Z,0.94
2023-01-21T04:46:53.671Z,0.95
2023-01-21T04:49:55.725Z,0.93
2023-01-21T04:52:55.676Z,0.91
2023-01-21T04:55:55.704Z,0.97
2023-01-21T04:58:55.710Z,1.00
2023-01-21T05:01:55.787Z,0.99
2023-01-21T05:04:55.717Z,0.93
2023-01-21T05:07:55.714Z,0.84
2023-01-21T05:10:55.685Z,1.01
2023-01-21T05:13:55.674Z,1.03
2023-01-21T05:16:55.799Z,1.04
2023-01-21T05:19:55.657Z,1.03
2023-01-21T05:22:55.681Z,1.02
2023-01-21T05:25:55.688Z,1.03
2023-01-21T05:28:55.698Z,0.96
2023-01-21T05:31:48.868Z,1.00
2023-01-21T05:34:48.689Z,1.01
2023-01-21T05:37:48.676Z,0.98
2023-01-21T05:40:48.655Z,1.01
2023-01-21T05:43:48.637Z,1.01
2023-01-21T05:46:48.701Z,0.99
2023-01-21T05:49:48.707Z,1.01
2023-01-21T05:52:48.691Z,0.98
2023-01-21T05:55:50.655Z,0.99
2023-01-21T05:58:50.680Z,0.85
2023-01-21T06:01:50.664Z,0.88
2023-01-21T06:04:50.647Z,0.94
2023-01-21T06:07:50.637Z,0.95
2023-01-21T06:10:50.664Z,0.78
2023-01-21T06:13:50.653Z,0.95
2023-01-21T06:16:50.706Z,0.93
2023-01-21T06:19:50.692Z,0.98
2023-01-21T06:22:50.635Z,0.99
2023-01-21T06:25:50.664Z,1.02
2023-01-21T06:28:50.681Z,1.03
2023-01-21T06:31:50.768Z,1.06
2023-01-21T06:34:50.674Z,1.09
2023-01-21T06:37:50.688Z,1.15
2023-01-21T06:40:50.653Z,0.93
2023-01-21T06:43:50.708Z,1.15
2023-01-21T06:47:00.628Z,1.19
2023-01-21T06:50:00.696Z,1.21
2023-01-21T06:53:01.708Z,1.12
2023-01-21T06:56:01.705Z,1.15
2023-01-21T06:59:01.700Z,1.30
2023-01-21T07:02:01.670Z,1.33
2023-01-21T07:05:01.734Z,1.34
2023-01-21T07:08:02.688Z,1.39
2023-01-21T07:11:02.697Z,1.30
2023-01-21T07:14:02.678Z,1.36
2023-01-21T07:17:03.659Z,1.36
2023-01-21T07:20:03.646Z,1.29
2023-01-21T07:23:03.666Z,1.18
2023-01-21T07:26:03.686Z,1.42
2023-01-21T07:29:03.697Z,1.35
2023-01-21T07:32:03.752Z,1.40
2023-01-21T07:35:03.697Z,1.43
2023-01-21T07:38:03.668Z,1.63
2023-01-21T07:41:03.674Z,1.72
2023-01-21T07:44:04.689Z,1.61
2023-01-21T07:47:05.692Z,1.76
2023-01-21T07:50:05.682Z,1.81
2023-01-21T07:53:08.679Z,1.83
2023-01-21T07:56:08.672Z,1.89
2023-01-21T07:59:08.676Z,1.94
2023-01-21T08:02:08.799Z,1.98
2023-01-21T08:05:08.642Z,1.93
2023-01-21T08:08:10.652Z,2.02
2023-01-21T08:11:10.673Z,1.92
2023-01-21T08:14:10.674Z,1.83
2023-01-21T08:17:10.637Z,2.11
2023-01-21T08:20:10.670Z,2.04
2023-01-21T08:23:13.688Z,1.98
2023-01-21T08:26:16.645Z,1.93
2023-01-21T08:29:16.786Z,1.88
2023-01-21T08:32:16.679Z,2.01
2023-01-21T08:35:17.006Z,1.94
2023-01-21T08:38:16.731Z,2.15
2023-01-21T08:41:17.722Z,2.29
2023-01-21T08:44:17.672Z,2.52
2023-01-21T08:47:17.663Z,2.63
2023-01-21T08:50:17.634Z,2.85
2023-01-21T08:53:17.728Z,2.86
2023-01-21T08:56:17.666Z,2.95
2023-01-21T08:59:17.677Z,2.83
2023-01-21T09:02:17.793Z,2.86
2023-01-21T09:05:17.901Z,2.66
2023-01-21T09:08:10.686Z,2.78
2023-01-21T09:11:08.645Z,2.81
2023-01-21T09:14:10.644Z,2.86
2023-01-21T09:17:10.646Z,2.69
2023-01-21T09:20:10.688Z,2.45
2023-01-21T09:23:30.646Z,2.78
2023-01-21T09:26:32.712Z,2.80
2023-01-21T09:29:32.634Z,2.52
2023-01-21T09:32:32.641Z,2.83
2023-01-21T09:35:32.672Z,2.96
2023-01-21T09:38:32.653Z,2.93
2023-01-21T09:41:53.656Z,2.94
2023-01-21T09:44:57.671Z,3.03
2023-01-21T09:47:58.633Z,3.10
2023-01-21T09:50:59.676Z,3.51
2023-01-21T09:54:03.649Z,3.67
2023-01-21T09:57:14.670Z,3.88
2023-01-21T10:00:49.658Z,4.06
2023-01-21T10:03:55.663Z,3.98
2023-01-21T10:07:08.665Z,4.14
2023-01-21T10:10:30.675Z,4.11
2023-01-21T10:13:51.672Z,3.90
2023-01-21T10:17:09.663Z,3.76
2023-01-21T10:20:33.686Z,3.80
2023-01-21T10:24:00.715Z,3.86
2023-01-21T10:27:01.700Z,4.22
2023-01-21T10:30:07.857Z,4.97
2023-01-21T10:33:08.623Z,4.77
2023-01-21T10:36:30.666Z,4.75
2023-01-21T10:39:54.693Z,4.55
2023-01-21T10:43:13.621Z,4.44
2023-01-21T10:46:25.673Z,4.55
2023-01-21T10:49:56.658Z,4.56
2023-01-21T10:53:13.745Z,5.10
2023-01-21T10:56:35.681Z,5.23
2023-01-21T10:59:38.648Z,5.54
2023-01-21T11:02:43.731Z,5.49
2023-01-21T11:05:43.637Z,7.51
2023-01-21T11:08:43.740Z,8.60
2023-01-21T11:11:46.672Z,7.43
2023-01-21T11:14:47.659Z,7.44
2023-01-21T11:17:51.688Z,6.14
2023-01-21T11:20:55.638Z,5.79
2023-01-21T11:23:55.626Z,5.74
2023-01-21T11:27:06.627Z,5.08
2023-01-21T11:30:21.107Z,4.50
2023-01-21T11:33:37.680Z,4.38
2023-01-21T11:36:37.650Z,4.41
2023-01-21T11:39:38.642Z,4.28
2023-01-21T11:42:38.649Z,4.49
2023-01-21T11:45:43.666Z,4.74
2023-01-21T11:48:43.664Z,4.75
2023-01-21T11:51:43.634Z,5.07
2023-01-21T11:54:51.672Z,4.98
2023-01-21T11:57:53.675Z,4.58
2023-01-21T12:00:53.636Z,4.68
2023-01-21T12:04:09.747Z,4.49
2023-01-21T12:07:11.623Z,4.58
2023-01-21T12:10:26.680Z,4.67
2023-01-21T12:13:30.628Z,4.55
2023-01-21T12:16:50.680Z,4.23
2023-01-21T12:20:01.669Z,4.30
2023-01-21T12:23:25.743Z,4.41
2023-01-21T12:26:40.617Z,4.15
2023-01-21T12:29:40.671Z,4.21
2023-01-21T12:32:44.629Z,4.03
2023-01-21T12:35:51.680Z,3.89
2023-01-21T12:38:57.637Z,3.93
2023-01-21T12:42:00.645Z,4.02
2023-01-21T12:45:11.673Z,3.75
2023-01-21T12:48:23.668Z,3.69
2023-01-21T12:51:37.671Z,3.84
2023-01-21T12:54:42.655Z,3.79
2023-01-21T12:58:11.662Z,3.88
2023-01-21T13:01:14.743Z,3.76
2023-01-21T13:04:37.681Z,3.86
2023-01-21T13:08:07.693Z,3.94
2023-01-21T13:11:16.656Z,3.77
2023-01-21T13:14:22.646Z,3.67
2023-01-21T13:17:30.611Z,3.67
2023-01-21T13:20:33.654Z,3.68
2023-01-21T13:23:54.675Z,3.61
2023-01-21T13:26:57.674Z,3.55
2023-01-21T13:30:08.640Z,3.66
2023-01-21T13:33:18.676Z,3.63
2023-01-21T13:36:38.645Z,3.57
2023-01-21T13:39:57.660Z,3.73
2023-01-21T13:43:21.688Z,3.71
2023-01-21T13:46:33.649Z,3.67
2023-01-21T13:49:54.662Z,3.74
2023-01-21T13:53:11.651Z,3.68
2023-01-21T13:56:43.648Z,3.69
2023-01-21T13:59:51.720Z,3.74
2023-01-21T14:03:33.719Z,3.60
2023-01-21T14:06:56.657Z,3.65
2023-01-21T14:10:02.644Z,3.61
2023-01-21T14:13:41.678Z,3.54
2023-01-21T14:16:47.677Z,3.47
2023-01-21T14:20:06.625Z,3.47
2023-01-21T14:23:13.620Z,3.43
2023-01-21T14:26:34.678Z,3.45
2023-01-21T14:29:46.674Z,3.45
2023-01-21T14:32:58.647Z,3.44
2023-01-21T14:36:04.629Z,3.37
2023-01-21T14:39:07.677Z,3.35
2023-01-21T14:42:34.090Z,3.38
2023-01-21T14:45:34.675Z,3.31
2023-01-21T14:48:53.658Z,3.23
2023-01-21T14:52:03.648Z,3.11
2023-01-21T14:55:03.651Z,3.05
2023-01-21T14:58:07.655Z,2.94
2023-01-21T15:01:07.648Z,2.87
2023-01-21T15:04:07.680Z,2.67
2023-01-21T15:07:10.666Z,2.70
2023-01-21T15:10:13.658Z,2.80
2023-01-21T15:13:15.697Z,2.70
2023-01-21T15:16:17.686Z,2.70
2023-01-21T15:19:26.267Z,2.64
2023-01-21T15:22:34.675Z,2.55
2023-01-21T15:25:43.713Z,2.45
2023-01-21T15:32:49.672Z,2.24
2023-01-21T15:35:53.634Z,2.17
2023-01-21T15:38:53.649Z,2.12
2023-01-21T15:42:16.620Z,2.07
2023-01-21T15:45:35.755Z,2.02
2023-01-21T15:48:42.805Z,1.98
2023-01-21T15:51:57.678Z,1.95
2023-01-21T15:55:15.999Z,1.89
2023-01-21T16:01:51.636Z,1.83
2023-01-21T16:04:54.636Z,1.74
2023-01-21T16:08:12.605Z,1.81
2023-01-21T16:11:53.669Z,1.80
2023-01-21T16:15:12.652Z,1.75
2023-01-21T16:18:28.647Z,1.71
2023-01-21T16:21:32.628Z,1.69
2023-01-21T16:24:35.663Z,1.60
2023-01-21T16:27:41.653Z,1.62
2023-01-21T16:30:43.667Z,1.56
2023-01-21T16:33:43.606Z,1.77
2023-01-21T16:36:51.673Z,1.66
2023-01-21T16:39:51.660Z,1.85
2023-01-21T16:42:52.661Z,1.81
2023-01-21T16:45:52.655Z,1.89
2023-01-21T16:48:52.628Z,1.72
2023-01-21T16:51:56.621Z,1.91
2023-01-21T16:55:04.664Z,1.83
2023-01-21T16:58:05.674Z,1.85
2023-01-21T17:01:25.729Z,1.96
2023-01-21T17:04:25.665Z,1.95
2023-01-21T17:07:32.665Z,1.84
2023-01-21T17:10:34.660Z,1.95
2023-01-21T17:13:35.647Z,1.80
2023-01-21T17:16:44.672Z,1.85
2023-01-21T17:19:52.651Z,1.77
2023-01-21T17:22:52.670Z,1.91
2023-01-21T17:25:52.622Z,1.75
2023-01-21T17:32:14.624Z,1.89
2023-01-21T17:35:18.061Z,1.87
2023-01-21T17:38:18.625Z,1.90
2023-01-21T17:41:20.679Z,1.84
2023-01-21T17:44:28.651Z,1.68
2023-01-21T17:48:04.078Z,1.60
2023-01-21T17:50:59.678Z,1.76
2023-01-21T17:54:10.619Z,1.77
2023-01-21T17:57:11.603Z,1.77
2023-01-21T18:00:11.619Z,1.81
2023-01-21T18:03:11.617Z,1.81
2023-01-21T18:06:11.640Z,1.68
2023-01-21T18:09:11.650Z,1.79
2023-01-21T18:12:11.624Z,1.79
2023-01-21T18:15:11.656Z,1.66
2023-01-21T18:18:12.641Z,1.77
2023-01-21T18:21:12.662Z,1.79
2023-01-21T18:24:12.698Z,1.73
2023-01-21T18:27:13.627Z,1.76
2023-01-21T18:30:13.643Z,1.63
2023-01-21T18:33:13.616Z,1.72
2023-01-21T18:36:13.675Z,1.66
2023-01-21T18:39:13.632Z,1.64
2023-01-21T18:42:13.649Z,1.79
2023-01-21T18:45:13.661Z,1.83
2023-01-21T18:48:13.663Z,1.79
2023-01-21T18:51:13.666Z,1.83
2023-01-21T18:54:14.651Z,1.73
2023-01-21T18:57:14.642Z,1.80
2023-01-21T19:00:14.649Z,1.87
2023-01-21T19:03:14.656Z,1.86
2023-01-21T19:06:14.646Z,1.81
2023-01-21T19:09:14.647Z,1.71
2023-01-21T19:12:14.632Z,1.80
2023-01-21T19:15:16.659Z,1.85
2023-01-21T19:18:16.662Z,1.86
2023-01-21T19:21:16.611Z,1.86
2023-01-21T19:24:16.658Z,1.82
2023-01-21T19:27:16.610Z,1.86
2023-01-21T19:30:16.797Z,1.66
2023-01-21T19:33:16.664Z,1.82
2023-01-21T19:36:19.645Z,1.70
2023-01-21T19:39:29.621Z,1.73
2023-01-21T19:42:29.606Z,1.71
2023-01-21T19:45:30.653Z,1.57
2023-01-21T19:48:32.627Z,1.69
2023-01-21T19:51:32.651Z,1.66
2023-01-21T19:54:32.621Z,1.43
2023-01-21T19:57:32.661Z,1.52
2023-01-21T20:00:48.701Z,1.57
2023-01-21T20:03:59.692Z,1.55
2023-01-21T20:06:59.653Z,1.27
2023-01-21T20:09:59.674Z,1.41
2023-01-21T20:12:59.650Z,1.38
2023-01-21T20:16:01.676Z,1.49
2023-01-21T20:19:02.607Z,1.50
2023-01-21T20:22:03.151Z,1.42
2023-01-21T20:25:02.624Z,1.54
2023-01-21T20:28:07.599Z,1.54
2023-01-21T20:31:12.771Z,1.52
2023-01-21T20:34:12.623Z,1.42
2023-01-21T20:37:12.658Z,1.54
2023-01-21T20:40:12.627Z,1.57
2023-01-21T20:43:12.621Z,1.59
2023-01-21T20:46:15.645Z,1.52
2023-01-21T20:49:15.619Z,1.64
2023-01-21T20:52:15.596Z,1.58
2023-01-21T20:55:16.212Z,1.47
2023-01-21T20:58:16.598Z,1.61
2023-01-21T21:01:16.679Z,1.59
2023-01-21T21:04:16.631Z,1.47
2023-01-21T21:07:16.651Z,1.56
2023-01-21T21:10:16.827Z,1.52
2023-01-21T21:13:16.624Z,1.44
2023-01-21T21:16:17.737Z,1.53
2023-01-21T21:19:17.606Z,1.51
2023-01-21T21:22:17.669Z,1.35
2023-01-21T21:25:17.838Z,1.27
2023-01-21T21:28:17.679Z,1.28
2023-01-21T21:31:17.753Z,1.07
2023-01-21T21:34:17.627Z,1.17
2023-01-21T21:37:17.611Z,1.05
2023-01-21T21:40:17.639Z,1.03
2023-01-21T21:43:35.946Z,0.98
2023-01-21T21:46:54.600Z,0.80
2023-01-21T21:49:54.630Z,0.98
2023-01-21T21:52:54.585Z,0.91
2023-01-21T21:55:54.612Z,0.87
2023-01-21T21:58:54.628Z,0.86
2023-01-21T22:01:55.674Z,0.74
2023-01-21T22:04:55.626Z,0.74
2023-01-21T22:07:55.647Z,0.61
2023-01-21T22:10:55.592Z,0.71
2023-01-21T22:13:55.618Z,0.69
2023-01-21T22:16:56.659Z,0.55
2023-01-21T22:19:56.618Z,0.47
2023-01-21T22:22:56.643Z,0.60
2023-01-21T22:25:56.606Z,0.55
2023-01-21T22:28:57.636Z,0.43
2023-01-21T22:31:57.705Z,0.47
2023-01-21T22:34:57.686Z,0.33
2023-01-21T22:37:57.621Z,0.39
2023-01-21T22:40:57.621Z,0.33
2023-01-21T22:43:58.632Z,0.38
2023-01-21T22:46:58.609Z,0.41
2023-01-21T22:49:58.629Z,0.46
2023-01-21T22:52:58.632Z,0.33
2023-01-21T22:56:05.635Z,0.42
2023-01-21T22:59:05.626Z,0.40
2023-01-21T23:02:05.585Z,0.14
2023-01-21T23:05:05.747Z,0.25
2023-01-21T23:08:05.644Z,0.35
2023-01-21T23:11:16.590Z,0.36
2023-01-21T23:14:16.588Z,0.30
2023-01-21T23:17:16.632Z,0.29
2023-01-21T23:20:17.007Z,0.32
2023-01-21T23:23:16.592Z,0.23
2023-01-21T23:26:20.610Z,0.18
2023-01-21T23:29:20.578Z,0.25
2023-01-21T23:32:20.666Z,0.25
2023-01-21T23:35:20.624Z,0.35
2023-01-21T23:38:20.603Z,0.33
2023-01-21T23:41:23.623Z,0.24
2023-01-21T23:44:23.628Z,0.29
2023-01-21T23:47:23.623Z,0.36
2023-01-21T23:50:23.587Z,0.34
2023-01-21T23:53:23.587Z,0.37
2023-01-21T23:56:26.627Z,0.43
2023-01-21T23:59:26.621Z,0.53
